Time;durP1;ratioP1;P1;durP2;ratioP2;P2;SDS_P1;SDS_P2;PMS_P1;PMS_P2;Temp;Humidity;BMP_temperature;BMP_pressure;BME280_temperature;BME280_humidity;BME280_pressure;Samples;Min_cycle;Max_cycle;Signal;HPM_P1;HPM_P2
2021/07/31 00:00:05;;;;;;;4.50;4.03;;;;;;;20.80;61.30;95837.59;1699664;82;20972;-79
2021/07/31 00:02:31;;;;;;;4.85;4.35;;;;;;;20.85;61.47;95832.34;1680878;84;20964;-79
2021/07/31 00:04:57;;;;;;;4.95;4.00;;;;;;;20.94;61.10;95840.02;1713970;82;20916;-79
2021/07/31 00:07:22;;;;;;;5.33;3.75;;;;;;;21.04;61.16;95840.06;1714852;83;21249;-79
2021/07/31 00:09:48;;;;;;;4.60;4.08;;;;;;;21.10;61.14;95836.89;1721640;82;20936;-79
2021/07/31 00:12:14;;;;;;;4.65;4.25;;;;;;;21.17;60.85;95834.81;1718950;83;20881;-79
2021/07/31 00:14:40;;;;;;;5.22;4.42;;;;;;;21.25;60.75;95832.45;1708171;83;21004;-79
2021/07/31 00:17:07;;;;;;;5.85;4.35;;;;;;;21.32;61.03;95835.39;1684072;83;21330;-80
2021/07/31 00:19:34;;;;;;;6.00;4.15;;;;;;;21.39;60.61;95831.95;1717380;83;21183;-80
2021/07/31 00:22:01;;;;;;;4.37;3.92;;;;;;;21.47;60.52;95833.53;1696310;83;20942;-79
2021/07/31 00:24:28;;;;;;;4.67;4.05;;;;;;;21.54;60.51;95832.76;1686502;83;20959;-80
2021/07/31 00:26:55;;;;;;;5.28;4.40;;;;;;;21.59;60.32;95834.59;1716471;82;21396;-80
2021/07/31 00:29:22;;;;;;;6.17;4.55;;;;;;;21.65;60.23;95837.53;1692286;83;20991;-79
2021/07/31 00:31:48;;;;;;;6.03;4.17;;;;;;;21.67;60.04;95840.70;1712783;83;21364;-80
2021/07/31 00:34:13;;;;;;;4.70;4.05;;;;;;;21.70;60.17;95840.69;1684097;83;21034;-79
2021/07/31 00:36:39;;;;;;;6.05;4.53;;;;;;;21.69;60.37;95842.55;1710322;82;21042;-80
2021/07/31 00:39:05;;;;;;;5.28;4.33;;;;;;;21.69;60.02;95845.19;1695722;83;21299;-79
2021/07/31 00:41:31;;;;;;;6.60;5.70;;;;;;;21.68;60.35;95840.17;1724733;82;20905;-79
2021/07/31 00:43:56;;;;;;;5.80;4.83;;;;;;;21.74;59.74;95849.14;1714016;82;20908;-80
2021/07/31 00:46:22;;;;;;;7.67;4.83;;;;;;;21.83;59.69;95846.77;1691902;83;20963;-79
2021/07/31 00:48:48;;;;;;;5.30;4.40;;;;;;;21.86;59.95;95844.38;1699102;82;20928;-79
2021/07/31 00:51:14;;;;;;;6.60;4.70;;;;;;;21.87;59.30;95846.50;1726946;82;21400;-79
2021/07/31 00:53:39;;;;;;;5.30;4.40;;;;;;;21.94;59.51;95856.27;1723814;81;20991;-78
2021/07/31 00:56:05;;;;;;;5.33;4.58;;;;;;;21.97;59.55;95854.44;1693216;82;21003;-79
2021/07/31 00:58:31;;;;;;;6.60;4.72;;;;;;;21.99;59.31;95847.02;1700402;82;20935;-79
2021/07/31 01:00:57;;;;;;;5.83;4.83;;;;;;;22.03;59.31;95844.10;1682902;82;20957;-79
2021/07/31 01:03:23;;;;;;;7.00;4.97;;;;;;;22.07;59.08;95841.21;1699932;83;20958;-79
2021/07/31 01:05:48;;;;;;;4.58;4.00;;;;;;;22.14;59.14;95842.27;1719609;83;20904;-79
2021/07/31 01:08:14;;;;;;;6.75;5.05;;;;;;;22.14;59.72;95839.63;1682417;83;21337;-79
2021/07/31 01:10:40;;;;;;;5.80;5.22;;;;;;;;;;1709320;83;20921;-78
2021/07/31 01:13:05;;;;;;;5.67;4.60;;;;;;;22.06;59.75;95840.16;1713425;83;20954;-79
2021/07/31 01:15:31;;;;;;;5.78;4.95;;;;;;;22.07;59.65;95837.77;1672537;83;20951;-78
2021/07/31 01:17:57;;;;;;;6.35;4.80;;;;;;;22.17;59.45;95840.41;1670291;83;20968;-79
2021/07/31 01:20:23;;;;;;;6.00;4.12;;;;;;;22.25;59.39;95825.83;1747899;81;20961;-79
2021/07/31 01:22:49;;;;;;;7.95;4.72;;;;;;;22.32;59.30;95827.67;1754785;81;20902;-78
2021/07/31 01:25:15;;;;;;;4.70;4.25;;;;;;;22.34;59.31;95819.73;1752070;81;21051;-78
2021/07/31 01:27:41;;;;;;;5.75;4.75;;;;;;;22.39;59.30;95824.20;1734130;81;21257;-79
2021/07/31 01:30:08;;;;;;;5.53;4.70;;;;;;;22.38;59.34;95817.33;1684031;84;20932;-79
2021/07/31 01:32:33;;;;;;;7.12;4.75;;;;;;;22.40;59.15;95813.88;1697980;83;20944;-80
2021/07/31 01:34:59;;;;;;;6.25;4.70;;;;;;;22.46;59.37;95814.93;1706636;83;20978;-80
2021/07/31 01:37:25;;;;;;;6.17;4.62;;;;;;;22.45;59.66;95812.52;1700356;83;20999;-79
2021/07/31 01:39:51;;;;;;;5.70;5.12;;;;;;;22.45;59.15;95809.87;1677626;84;20909;-79
2021/07/31 01:42:17;;;;;;;6.70;5.35;;;;;;;22.46;59.59;95806.20;1748840;81;20946;-80
2021/07/31 01:44:42;;;;;;;7.10;5.35;;;;;;;22.38;59.30;95791.65;1743901;81;21260;-79
2021/07/31 01:47:08;;;;;;;5.10;4.60;;;;;;;22.51;59.69;95798.76;1683802;84;21260;-80
2021/07/31 01:49:34;;;;;;;6.83;5.10;;;;;;;22.51;59.55;95795.58;1745120;81;20901;-79
2021/07/31 01:51:59;;;;;;;5.20;4.70;;;;;;;22.48;59.95;95792.69;1745961;81;20925;-79
2021/07/31 01:54:25;;;;;;;5.25;4.75;;;;;;;22.41;60.07;95792.95;1729274;81;20951;-80
2021/07/31 01:56:52;;;;;;;6.37;4.95;;;;;;;22.35;60.09;95792.73;1746167;81;21048;-80
2021/07/31 01:59:18;;;;;;;5.33;4.60;;;;;;;22.30;60.19;95797.52;1740974;81;21288;-80
2021/07/31 02:01:43;;;;;;;6.58;4.58;;;;;;;22.29;60.53;95788.49;1746884;81;21229;-80
2021/07/31 02:04:09;;;;;;;5.55;4.83;;;;;;;22.28;60.13;95785.59;1744281;81;20956;-80
2021/07/31 02:06:35;;;;;;;8.40;5.08;;;;;;;22.28;60.45;95787.70;1749672;81;20938;-80
2021/07/31 02:09:01;;;;;;;5.75;4.55;;;;;;;22.28;60.17;95781.09;1753308;81;21289;-80
2021/07/31 02:11:26;;;;;;;6.80;5.03;;;;;;;22.27;60.49;95778.18;1684625;84;20982;-79
2021/07/31 02:13:52;;;;;;;5.65;4.90;;;;;;;22.27;59.84;95776.86;1703483;83;21342;-80
2021/07/31 02:16:24;;;;;;;6.83;4.70;;;;;;;22.32;60.34;95777.39;1690033;83;21112;-79
2021/07/31 02:18:50;;;;;;;5.60;5.00;;;;;;;22.27;60.55;95777.39;1755093;80;20955;-79
2021/07/31 02:21:17;;;;;;;6.70;4.78;;;;;;;22.23;60.70;95779.00;1730536;80;21979;-80
2021/07/31 02:23:43;;;;;;;5.20;4.70;;;;;;;22.16;60.70;95785.37;1682552;84;20932;-80
2021/07/31 02:26:08;;;;;;;5.35;4.85;;;;;;;22.08;61.12;95779.30;1704329;83;21056;-80
2021/07/31 02:28:34;;;;;;;6.42;5.67;;;;;;;22.02;61.43;95781.67;1699997;83;20948;-79
2021/07/31 02:31:00;;;;;;;7.10;5.42;;;;;;;21.98;61.34;95783.28;1690534;83;21297;-79
2021/07/31 02:33:25;;;;;;;5.28;4.78;;;;;;;22.04;61.41;95788.81;1766103;80;20925;-79
2021/07/31 02:35:51;;;;;;;6.90;4.78;;;;;;;22.05;61.69;95783.02;1691359;84;20952;-79
2021/07/31 02:38:17;;;;;;;6.22;5.08;;;;;;;22.07;60.66;95788.83;1727291;82;20936;-79
2021/07/31 02:40:42;;;;;;;7.62;5.08;;;;;;;22.11;61.18;95789.88;1694350;83;20992;-79
2021/07/31 02:43:08;;;;;;;6.08;5.10;;;;;;;22.12;60.85;95788.27;1707909;83;21298;-80
2021/07/31 02:45:36;;;;;;;7.33;4.60;;;;;;;22.10;61.36;95785.11;1714129;83;20977;-80
2021/07/31 02:48:04;;;;;;;5.72;4.78;;;;;;;22.11;60.95;95780.61;1692489;84;21862;-79
2021/07/31 02:50:31;;;;;;;6.75;4.42;;;;;;;22.11;61.19;95772.67;1754126;80;21026;-79
2021/07/31 02:52:56;;;;;;;5.83;4.62;;;;;;;22.09;60.51;95774.27;1752601;80;21285;-79
2021/07/31 02:55:22;;;;;;;5.78;4.60;;;;;;;22.10;61.22;95777.17;1764327;80;20995;-79
2021/07/31 02:57:48;;;;;;;7.08;5.47;;;;;;;22.11;60.32;95784.05;1749573;80;20969;-79
2021/07/31 03:00:14;;;;;;;6.50;4.78;;;;;;;22.15;60.99;95789.62;1755617;80;20923;-80
2021/07/31 03:02:40;;;;;;;5.30;4.55;;;;;;;22.12;60.91;95779.02;1753808;80;20951;-80
2021/07/31 03:05:07;;;;;;;5.00;4.50;;;;;;;22.08;61.16;95774.54;1764760;80;20969;-79
2021/07/31 03:07:33;;;;;;;7.20;4.78;;;;;;;22.08;60.56;95778.50;1753739;80;20904;-79
2021/07/31 03:09:59;;;;;;;5.75;4.85;;;;;;;22.11;60.83;95780.61;1750863;80;20983;-79
2021/07/31 03:12:26;;;;;;;5.15;4.65;;;;;;;22.16;60.62;95780.09;1754766;80;20970;-80
2021/07/31 03:14:52;;;;;;;5.78;4.70;;;;;;;22.23;60.26;95781.64;1746628;80;20936;-80
2021/07/31 03:17:20;;;;;;;5.92;5.00;;;;;;;22.25;60.38;95778.98;1755490;80;21329;-79
2021/07/31 03:19:46;;;;;;;6.22;4.90;;;;;;;22.25;60.83;95778.19;1747077;80;21273;-80
2021/07/31 03:22:11;;;;;;;6.30;5.00;;;;;;;22.22;60.16;95784.03;1691082;83;20951;-79
2021/07/31 03:24:37;;;;;;;5.03;4.50;;;;;;;22.22;60.80;95785.35;1686661;84;20949;-79
2021/07/31 03:27:06;;;;;;;5.20;4.70;;;;;;;22.16;61.03;95789.34;1711585;83;21073;-80
2021/07/31 03:29:33;;;;;;;5.97;5.42;;;;;;;22.12;60.80;95784.31;1690872;84;20959;-79
2021/07/31 03:31:59;;;;;;;6.03;5.00;;;;;;;22.10;60.90;95782.47;1678870;83;20920;-79
2021/07/31 03:34:25;;;;;;;5.22;4.72;;;;;;;22.08;61.10;95784.59;1708649;83;20968;-79
2021/07/31 03:36:55;;;;;;;6.08;5.22;;;;;;;22.04;61.19;95782.73;1693891;84;21331;-79
2021/07/31 03:39:22;;;;;;;5.62;4.83;;;;;;;22.01;61.68;95782.73;1702879;83;20944;-79
2021/07/31 03:41:48;;;;;;;5.05;4.50;;;;;;;21.95;61.08;95783.79;1701543;83;21005;-79
2021/07/31 03:44:14;;;;;;;5.60;4.80;;;;;;;21.93;61.85;95784.59;1709767;83;21008;-79
2021/07/31 03:46:47;;;;;;;5.80;4.80;;;;;;;21.90;62.11;95778.52;1709802;83;21011;-79
2021/07/31 03:49:13;;;;;;;4.83;4.40;;;;;;;21.90;62.21;95782.48;1703382;83;21316;-79
2021/07/31 03:51:39;;;;;;;5.15;4.75;;;;;;;21.88;62.42;95781.44;1707862;83;20945;-79
2021/07/31 03:54:05;;;;;;;5.78;4.80;;;;;;;21.86;62.40;95785.41;1704874;83;20964;-79
2021/07/31 03:56:32;;;;;;;5.50;4.92;;;;;;;21.85;62.43;95783.83;1706792;83;20987;-79
2021/07/31 03:58:57;;;;;;;5.30;4.80;;;;;;;21.84;62.37;95787.00;1757022;80;20877;-79
2021/07/31 04:01:24;;;;;;;5.28;4.53;;;;;;;21.86;62.77;95794.67;1687064;84;21407;-79
2021/07/31 04:03:51;;;;;;;5.28;4.78;;;;;;;21.81;62.67;95799.97;1704211;83;21000;-79
2021/07/31 04:06:17;;;;;;;5.00;4.37;;;;;;;21.84;62.96;95810.02;1703392;83;21353;-79
2021/07/31 04:08:42;;;;;;;5.08;4.58;;;;;;;21.83;63.04;95812.39;1698367;83;20976;-79
2021/07/31 04:11:08;;;;;;;5.28;4.80;;;;;;;21.83;63.43;95817.69;1695804;83;21032;-79
2021/07/31 04:13:34;;;;;;;4.78;4.28;;;;;;;21.83;63.35;95821.12;1707307;83;21011;-79
2021/07/31 04:16:00;;;;;;;7.10;4.58;;;;;;;21.87;63.34;95824.81;1690788;83;21039;-79
2021/07/31 04:18:27;;;;;;;6.20;4.25;;;;;;;21.91;63.37;95830.36;1687123;84;21294;-78
2021/07/31 04:20:52;;;;;;;5.33;4.40;;;;;;;21.91;63.10;95830.36;1743105;81;20912;-79
2021/07/31 04:23:18;;;;;;;6.15;4.85;;;;;;;21.92;63.51;95831.94;1745550;80;20992;-79
2021/07/31 04:25:44;;;;;;;5.20;4.70;;;;;;;21.92;63.56;95831.94;1752227;80;21428;-79
2021/07/31 04:28:10;;;;;;;5.03;4.47;;;;;;;21.92;63.79;95835.91;1735610;80;21258;-79
2021/07/31 04:30:36;;;;;;;6.17;4.65;;;;;;;21.89;63.95;95832.48;1722016;81;20921;-79
2021/07/31 04:33:02;;;;;;;4.92;4.42;;;;;;;21.85;63.92;95836.19;1680492;84;20980;-79
2021/07/31 04:35:27;;;;;;;5.78;4.80;;;;;;;21.86;63.95;95835.12;1701591;84;20997;-79
2021/07/31 04:37:53;;;;;;;4.95;4.45;;;;;;;21.88;64.14;95837.50;1701053;84;21401;-80
2021/07/31 04:40:19;;;;;;;6.08;5.20;;;;;;;21.88;63.05;95846.77;1709788;83;21031;-79
2021/07/31 04:42:45;;;;;;;5.35;4.83;;;;;;;21.92;63.21;95837.76;1709894;83;20995;-79
2021/07/31 04:45:10;;;;;;;5.37;4.87;;;;;;;21.94;63.75;95837.75;1708858;83;20921;-79
2021/07/31 04:47:40;;;;;;;5.00;4.60;;;;;;;21.92;63.49;95830.61;1711993;83;20940;-79
2021/07/31 04:50:08;;;;;;;5.58;5.05;;;;;;;21.92;63.62;95835.11;1703591;83;20959;-79
2021/07/31 04:52:35;;;;;;;5.67;5.08;;;;;;;21.91;63.73;95830.36;1758504;81;21008;-79
2021/07/31 04:55:00;;;;;;;4.92;4.42;;;;;;;21.91;63.66;95829.03;1752657;81;20932;-78
2021/07/31 04:57:26;;;;;;;5.15;4.65;;;;;;;21.91;63.79;95834.33;1756539;81;20932;-79
2021/07/31 04:59:52;;;;;;;7.35;4.62;;;;;;;21.94;63.30;95838.28;1675798;84;20951;-79
2021/07/31 05:02:17;;;;;;;6.10;4.67;;;;;;;21.98;63.88;95838.03;1748127;81;21223;-79
2021/07/31 05:04:43;;;;;;;4.97;4.47;;;;;;;22.00;63.68;95839.87;1739979;81;20925;-79
2021/07/31 05:07:09;;;;;;;5.35;4.85;;;;;;;22.02;63.33;95844.38;1690448;84;21023;-80
2021/07/31 05:09:35;;;;;;;5.28;4.37;;;;;;;22.05;63.19;95844.66;1735791;81;20947;-80
2021/07/31 05:12:01;;;;;;;5.83;5.17;;;;;;;22.07;62.64;95846.50;1717498;81;21239;-79
2021/07/31 05:14:27;;;;;;;5.78;5.17;;;;;;;22.13;62.92;95853.39;1746780;81;20969;-80
2021/07/31 05:16:53;;;;;;;6.78;5.33;;;;;;;22.19;62.20;95857.34;1745802;80;20989;-80
2021/07/31 05:19:19;;;;;;;5.85;4.87;;;;;;;22.26;61.90;95869.75;1757250;81;20929;-80
2021/07/31 05:21:45;;;;;;;6.03;5.42;;;;;;;22.31;61.54;95873.73;1759719;81;20964;-81
2021/07/31 05:24:11;;;;;;;7.58;5.40;;;;;;;22.36;62.04;95881.66;1742538;81;21001;-80
2021/07/31 05:26:37;;;;;;;5.53;5.00;;;;;;;22.39;61.69;95885.08;1753401;81;21080;-81
2021/07/31 05:29:05;;;;;;;6.10;5.50;;;;;;;22.38;62.01;95879.00;1720710;81;20886;-80
2021/07/31 05:31:31;;;;;;;5.55;4.97;;;;;;;22.40;61.48;95887.45;1666821;84;20985;-80
2021/07/31 05:33:57;;;;;;;6.65;5.22;;;;;;;22.41;61.23;95889.04;1684524;83;21343;-80
2021/07/31 05:36:23;;;;;;;6.45;5.40;;;;;;;22.44;61.13;95893.00;1713926;83;20978;-80
2021/07/31 05:38:48;;;;;;;5.62;5.00;;;;;;;22.44;61.28;95893.00;1755762;81;21000;-80
2021/07/31 05:41:16;;;;;;;6.55;5.25;;;;;;;22.45;61.32;95898.55;1689697;84;21329;-80
2021/07/31 05:43:43;;;;;;;5.67;4.67;;;;;;;22.43;61.21;95900.69;1750478;81;21009;-80
2021/07/31 05:46:09;;;;;;;6.45;5.30;;;;;;;22.41;61.23;95902.27;1675976;84;21013;-80
2021/07/31 05:48:35;;;;;;;8.23;5.30;;;;;;;22.38;61.19;95905.47;1700528;83;21007;-80
2021/07/31 05:51:01;;;;;;;5.60;5.10;;;;;;;22.39;60.91;95900.43;1702606;83;21373;-80
2021/07/31 05:53:27;;;;;;;5.87;5.37;;;;;;;22.40;60.74;95911.81;1697075;83;20996;-80
2021/07/31 05:55:53;;;;;;;5.90;5.12;;;;;;;22.40;60.97;95913.13;1700231;83;21012;-80
2021/07/31 05:58:19;;;;;;;4.95;4.45;;;;;;;22.39;61.13;95911.02;1674284;84;21464;-80
2021/07/31 06:00:44;;;;;;;5.78;5.28;;;;;;;22.39;60.98;95922.14;1700065;83;21067;-80
2021/07/31 06:03:10;;;;;;;7.72;5.40;;;;;;;22.40;61.05;95919.75;1690533;84;20944;-80
2021/07/31 06:05:36;;;;;;;6.00;5.35;;;;;;;22.43;61.21;95921.33;1755189;81;20898;-80
2021/07/31 06:08:01;;;;;;;6.60;5.30;;;;;;;22.44;61.25;95922.12;1751694;80;21254;-80
2021/07/31 06:10:28;;;;;;;5.90;5.25;;;;;;;22.44;61.70;95928.20;1748280;81;21057;-81
2021/07/31 06:12:54;;;;;;;5.37;4.47;;;;;;;22.41;61.59;95927.42;1729348;81;21208;-81
2021/07/31 06:15:20;;;;;;;5.92;5.20;;;;;;;22.39;62.09;95924.25;1732750;81;21012;-80
2021/07/31 06:17:46;;;;;;;5.97;4.97;;;;;;;22.37;62.23;95930.87;1728400;82;20973;-81
2021/07/31 06:20:13;;;;;;;6.28;5.60;;;;;;;22.34;62.43;95927.45;1714571;82;20981;-80
2021/07/31 06:22:40;;;;;;;8.93;5.83;;;;;;;22.30;62.45;95927.20;1712426;82;21310;-80
2021/07/31 06:25:06;;;;;;;6.17;5.50;;;;;;;22.29;62.35;95928.75;1733922;81;21044;-81
2021/07/31 06:27:32;;;;;;;6.08;5.47;;;;;;;22.29;62.56;95922.14;1718031;82;20984;-78
2021/07/31 06:29:58;;;;;;;6.00;5.40;;;;;;;22.30;62.76;95922.44;1736502;82;21228;-79
2021/07/31 06:32:23;;;;;;;5.60;5.05;;;;;;;22.30;62.65;95926.40;1738877;81;20905;-79
2021/07/31 06:34:49;;;;;;;6.72;5.40;;;;;;;22.29;62.76;95928.25;1737381;81;21011;-80
2021/07/31 06:37:15;;;;;;;5.50;5.00;;;;;;;22.27;63.12;95936.96;1722159;82;21490;-80
2021/07/31 06:39:41;;;;;;;6.30;5.70;;;;;;;22.23;63.44;95938.56;1732191;81;21047;-79
2021/07/31 06:42:07;;;;;;;6.60;5.05;;;;;;;22.18;63.61;95943.08;1726363;82;21242;-80
2021/07/31 06:44:32;;;;;;;8.25;5.80;;;;;;;22.10;64.09;95934.59;1726495;81;20909;-79
2021/07/31 06:46:58;;;;;;;6.58;5.17;;;;;;;22.01;64.30;95932.73;1726005;81;21262;-80
2021/07/31 06:49:24;;;;;;;5.58;4.95;;;;;;;21.90;64.91;95937.21;1720008;82;21211;-79
2021/07/31 06:51:51;;;;;;;5.80;5.17;;;;;;;21.78;65.65;95934.81;1716122;82;20968;-79
2021/07/31 06:54:17;;;;;;;6.65;5.60;;;;;;;21.68;66.31;95932.70;1727311;82;20958;-80
2021/07/31 06:56:43;;;;;;;5.10;4.70;;;;;;;21.61;66.69;95937.44;1719602;81;20974;-81
2021/07/31 06:59:08;;;;;;;5.58;4.95;;;;;;;21.54;66.76;95942.45;1717129;82;20897;-80
2021/07/31 07:01:34;;;;;;;5.62;5.12;;;;;;;21.43;67.35;95946.13;1723234;81;20913;-80
2021/07/31 07:04:00;;;;;;;5.72;5.12;;;;;;;21.33;67.77;95947.96;1732325;81;21254;-81
2021/07/31 07:06:25;;;;;;;6.85;5.50;;;;;;;21.27;68.05;95949.25;1717149;81;21263;-80
2021/07/31 07:08:51;;;;;;;5.65;5.15;;;;;;;21.22;68.50;95954.49;1727557;82;20917;-80
2021/07/31 07:11:17;;;;;;;6.05;5.40;;;;;;;21.18;68.88;95958.72;1721813;82;20921;-80
2021/07/31 07:13:43;;;;;;;6.42;5.35;;;;;;;21.11;70.26;95959.98;1731238;82;21401;-80
2021/07/31 07:16:09;;;;;;;6.42;5.45;;;;;;;21.01;70.09;95958.64;1735098;81;20960;-80
2021/07/31 07:18:35;;;;;;;5.92;5.35;;;;;;;20.91;70.11;95960.17;1682727;84;21215;-80
2021/07/31 07:21:09;;;;;;;5.85;5.22;;;;;;;20.87;70.28;95957.78;1671626;85;20996;-80
2021/07/31 07:23:35;;;;;;;7.00;4.80;;;;;;;20.88;70.72;95960.69;1669500;85;20932;-80
2021/07/31 07:26:01;;;;;;;5.40;4.90;;;;;;;20.90;70.94;95964.39;1676438;85;20991;-81
2021/07/31 07:28:27;;;;;;;5.00;4.60;;;;;;;20.88;70.60;95958.58;1673444;84;21372;-80
2021/07/31 07:30:53;;;;;;;4.37;3.98;;;;;;;20.85;71.05;95962.53;1673960;85;20992;-79
2021/07/31 07:33:18;;;;;;;5.15;4.65;;;;;;;20.84;70.64;95964.91;1636312;86;20889;-80
2021/07/31 07:35:44;;;;;;;4.70;4.25;;;;;;;20.80;70.47;95963.80;1717538;82;20971;-80
2021/07/31 07:38:10;;;;;;;5.03;4.53;;;;;;;20.82;70.58;95974.90;1715986;82;21329;-79
2021/07/31 07:40:36;;;;;;;4.37;3.98;;;;;;;20.85;71.18;95975.73;1680034;84;20937;-78
2021/07/31 07:43:01;;;;;;;5.60;4.35;;;;;;;20.89;70.55;95973.36;1706195;83;20880;-78
2021/07/31 07:45:27;;;;;;;4.78;4.37;;;;;;;20.92;71.50;95970.20;1691489;84;20880;-78
2021/07/31 07:47:53;;;;;;;5.28;4.22;;;;;;;20.90;70.56;95976.28;1732984;82;21042;-79
2021/07/31 07:50:19;;;;;;;4.40;3.95;;;;;;;20.94;71.08;95973.38;1720524;82;21385;-78
2021/07/31 07:52:45;;;;;;;4.47;4.08;;;;;;;20.96;71.46;95972.07;1695075;83;20979;-79
2021/07/31 07:55:10;;;;;;;4.65;4.00;;;;;;;20.98;71.29;95970.49;1719882;82;20975;-79
2021/07/31 07:57:40;;;;;;;4.75;4.25;;;;;;;21.01;71.39;95974.48;1710373;82;20948;-78
2021/07/31 08:00:07;;;;;;;4.70;4.30;;;;;;;21.04;71.57;95974.77;1706348;82;20909;-79
2021/07/31 08:02:33;;;;;;;5.67;5.17;;;;;;;21.06;71.63;95983.75;1713124;82;20937;-79
2021/07/31 08:05:00;;;;;;;5.62;5.12;;;;;;;21.06;71.58;95982.43;1673974;85;20976;-79
2021/07/31 08:07:25;;;;;;;5.25;4.03;;;;;;;21.11;71.80;95986.41;1716552;82;21304;-78
2021/07/31 08:09:51;;;;;;;5.42;4.60;;;;;;;21.17;71.66;95987.51;1719248;82;20995;-79
2021/07/31 08:12:17;;;;;;;4.53;4.10;;;;;;;21.16;71.61;95984.59;1712273;83;20975;-79
2021/07/31 08:14:45;;;;;;;4.75;4.33;;;;;;;21.19;72.07;95981.96;1716313;84;21301;-79
2021/07/31 08:17:11;;;;;;;4.58;4.17;;;;;;;21.18;71.78;95984.34;1713482;82;20991;-79
2021/07/31 08:19:36;;;;;;;4.22;3.80;;;;;;;21.19;71.93;95981.96;1689140;81;21384;-79
2021/07/31 08:22:03;;;;;;;4.33;3.80;;;;;;;21.19;72.00;95984.08;1745725;80;20985;-79
2021/07/31 08:24:28;;;;;;;3.92;3.52;;;;;;;21.20;71.76;95981.70;1757570;80;20939;-80
2021/07/31 08:26:54;;;;;;;4.75;3.90;;;;;;;21.21;71.66;95981.17;1738125;81;20980;-80
2021/07/31 08:29:20;;;;;;;4.10;3.70;;;;;;;21.22;71.30;95982.23;1715806;81;20953;-80
2021/07/31 08:31:45;;;;;;;3.50;3.20;;;;;;;21.26;71.15;95975.41;1737285;81;21277;-80
2021/07/31 08:34:15;;;;;;;4.90;3.55;;;;;;;21.25;70.85;95967.21;1736520;81;20991;-80
2021/07/31 08:36:41;;;;;;;3.98;3.62;;;;;;;21.27;70.58;95965.10;1739031;80;21268;-80
2021/07/31 08:39:06;;;;;;;3.35;2.90;;;;;;;21.31;70.28;95965.90;1747423;81;20995;-80
2021/07/31 08:41:35;;;;;;;3.65;3.17;;;;;;;21.35;70.35;95966.99;1738527;80;20944;-79
2021/07/31 08:44:06;;;;;;;3.17;2.85;;;;;;;21.42;69.70;95964.89;1745106;81;20973;-79
2021/07/31 08:46:29;;;;;;;3.87;2.83;;;;;;;21.48;70.48;95960.69;1739342;81;21380;-78
2021/07/31 08:48:56;;;;;;;2.92;2.60;;;;;;;21.54;69.75;95958.32;1745604;80;20932;-78
2021/07/31 08:51:22;;;;;;;3.12;2.83;;;;;;;21.60;69.81;95959.64;1732887;81;20932;-78
2021/07/31 08:53:47;;;;;;;3.17;2.65;;;;;;;21.60;69.89;95954.36;1742529;80;21035;-79
2021/07/31 08:56:13;;;;;;;2.95;2.67;;;;;;;21.62;68.72;95953.03;1741693;80;21289;-79
2021/07/31 08:58:40;;;;;;;3.08;2.77;;;;;;;21.66;69.14;95952.00;1741243;81;21023;-79
2021/07/31 09:01:06;;;;;;;3.37;2.90;;;;;;;21.73;69.54;95949.36;1733559;81;20952;-79
2021/07/31 09:03:47;;;;;;;2.37;2.15;;;;;;;21.75;68.13;95948.56;1745278;80;20936;-79
2021/07/31 09:06:28;;;;;;;3.02;2.45;;;;;;;21.80;68.54;95944.63;1754396;81;21336;-81
2021/07/31 09:08:54;;;;;;;2.55;2.35;;;;;;;21.85;69.11;95941.98;1745132;80;20983;-81
2021/07/31 09:11:20;;;;;;;2.33;2.08;;;;;;;21.91;69.40;95936.68;1745266;81;20972;-79
2021/07/31 09:13:46;;;;;;;2.92;2.08;;;;;;;21.95;66.62;95938.53;1745520;81;21316;-80
2021/07/31 09:16:12;;;;;;;2.42;1.95;;;;;;;21.97;66.50;95935.12;1750940;80;20938;-79
2021/07/31 09:18:44;;;;;;;2.47;2.22;;;;;;;22.00;66.35;95930.61;1738073;81;21032;-78
2021/07/31 09:21:15;;;;;;;3.25;2.22;;;;;;;22.08;67.16;95929.31;1733299;82;20988;-80
2021/07/31 09:23:47;;;;;;;3.02;2.37;;;;;;;22.18;66.98;95924.55;1690048;84;21294;-78
2021/07/31 09:26:22;;;;;;;3.95;2.10;;;;;;;22.23;67.56;95923.22;1675562;83;20934;-78
2021/07/31 09:29:11;;;;;;;2.55;2.35;;;;;;;22.30;67.14;95927.20;1665939;85;21298;-78
2021/07/31 09:31:51;;;;;;;2.50;2.27;;;;;;;22.36;66.22;95918.70;1682581;84;20997;-78
2021/07/31 09:34:40;;;;;;;2.42;2.20;;;;;;;22.45;68.19;95906.00;1672089;83;20930;-78
2021/07/31 09:37:25;;;;;;;2.30;2.10;;;;;;;22.56;67.66;95901.45;1700537;84;20947;-78
2021/07/31 09:40:05;;;;;;;2.92;2.45;;;;;;;22.71;66.49;95895.32;1734754;80;21194;-78
2021/07/31 09:42:40;;;;;;;3.33;3.02;;;;;;;22.89;66.05;95892.63;1749213;81;20931;-78
2021/07/31 09:45:13;;;;;;;3.10;2.80;;;;;;;23.09;65.11;95885.91;1737216;80;20883;-78
2021/07/31 09:47:59;;;;;;;2.45;2.25;;;;;;;23.28;63.59;95884.78;1745447;80;20941;-78
2021/07/31 09:50:43;;;;;;;2.72;2.52;;;;;;;23.39;64.19;95884.95;1724663;82;21282;-78
2021/07/31 09:53:17;;;;;;;2.62;2.40;;;;;;;23.55;63.48;95893.08;1717995;84;20940;-78
2021/07/31 09:55:45;;;;;;;2.47;1.98;;;;;;;23.61;61.80;95885.92;1740268;80;20944;-78
2021/07/31 09:58:14;;;;;;;2.47;2.08;;;;;;;23.67;62.44;95887.46;1730304;82;21035;-79
2021/07/31 10:00:41;;;;;;;2.25;2.02;;;;;;;23.80;63.39;95889.49;1730658;82;20900;-78
2021/07/31 10:03:09;;;;;;;3.35;2.10;;;;;;;23.88;62.06;95886.23;1739711;82;20975;-78
2021/07/31 10:05:39;;;;;;;3.15;2.33;;;;;;;23.98;62.46;95885.37;1732234;82;20944;-79
2021/07/31 10:08:07;;;;;;;2.95;1.98;;;;;;;24.11;62.71;95893.23;1750246;80;20897;-80
2021/07/31 10:10:34;;;;;;;10.03;4.78;;;;;;;24.19;61.60;95891.28;1738484;82;20960;-79
2021/07/31 10:13:00;;;;;;;3.75;2.87;;;;;;;24.25;60.91;95886.98;1751673;80;20971;-80
2021/07/31 10:15:26;;;;;;;13.08;6.10;;;;;;;24.36;60.46;95890.88;1748269;82;20932;-79
2021/07/31 10:17:52;;;;;;;4.83;3.10;;;;;;;24.41;60.27;95885.55;1736892;80;20976;-79
2021/07/31 10:20:25;;;;;;;13.10;6.15;;;;;;;24.34;61.14;95888.52;1731476;82;21032;-79
2021/07/31 10:22:51;;;;;;;10.58;5.60;;;;;;;24.40;60.73;95882.61;1733615;80;20944;-81
2021/07/31 10:25:19;;;;;;;6.33;3.50;;;;;;;24.46;61.70;95884.16;1733730;82;20972;-81
2021/07/31 10:27:48;;;;;;;13.30;5.72;;;;;;;24.47;60.56;95878.56;1749526;80;20956;-81
2021/07/31 10:30:38;;;;;;;10.03;5.20;;;;;;;24.48;60.29;95876.69;1727544;82;20901;-81
2021/07/31 10:33:04;;;;;;;20.17;9.40;;;;;;;24.43;60.28;95876.76;1729490;82;20897;-81
2021/07/31 10:35:36;;;;;;;46.30;18.23;;;;;;;24.43;59.92;95873.56;1748380;80;20948;-81
2021/07/31 10:38:10;;;;;;;7.40;3.98;;;;;;;24.47;60.69;95869.80;1743867;80;21210;-81
2021/07/31 10:40:42;;;;;;;14.60;7.33;;;;;;;24.55;60.90;95877.14;1742304;81;20983;-80
2021/07/31 10:43:14;;;;;;;9.28;4.67;;;;;;;24.57;60.75;95876.85;1666108;77;21384;-80
2021/07/31 10:45:40;;;;;;;44.40;20.10;;;;;;;24.60;60.94;95872.33;1704238;83;20944;-80
2021/07/31 10:51:33;;;;;;;12.63;8.48;;;;;;;24.63;59.97;95875.73;1708392;81;20964;-79
2021/07/31 10:53:58;;;;;;;4.67;3.75;;;;;;;24.74;60.80;95876.67;1715615;81;21010;-79
2021/07/31 10:56:24;;;;;;;3.37;2.98;;;;;;;24.81;60.43;95878.44;1731346;80;20919;-79
2021/07/31 10:59:16;;;;;;;5.87;3.60;;;;;;;24.90;59.81;95878.62;1732922;80;21233;-80
2021/07/31 11:01:42;;;;;;;3.12;2.83;;;;;;;24.94;60.18;95880.16;1764877;80;20952;-82
2021/07/31 11:04:07;;;;;;;8.80;5.62;;;;;;;24.95;58.17;95882.53;1768027;80;20904;-79
2021/07/31 11:07:13;;;;;;;6.90;5.20;;;;;;;25.02;58.79;95878.22;1773474;80;20857;-80
2021/07/31 11:09:36;;;;;;;3.00;2.70;;;;;;;25.11;59.13;95878.63;1716295;83;20934;-81
2021/07/31 11:12:44;;;;;;;3.85;3.42;;;;;;;25.20;58.10;95881.97;1730013;81;20995;-81
2021/07/31 11:15:12;;;;;;;3.45;3.15;;;;;;;25.24;60.03;95885.66;1733023;82;21012;-83
2021/07/31 11:17:38;;;;;;;3.80;3.40;;;;;;;25.22;58.26;95886.45;1738910;82;21233;-82
2021/07/31 11:20:26;;;;;;;5.28;3.75;;;;;;;25.18;58.16;95889.44;1721821;82;21009;-81
2021/07/31 11:22:55;;;;;;;6.72;3.98;;;;;;;25.06;58.82;95891.21;1724345;82;20905;-82
2021/07/31 11:25:21;;;;;;;3.65;2.77;;;;;;;25.08;59.00;95883.73;1729177;82;20976;-83
2021/07/31 11:28:08;;;;;;;7.67;4.22;;;;;;;25.14;58.32;95898.53;1730269;81;20952;-83
2021/07/31 11:30:39;;;;;;;4.47;3.60;;;;;;;25.19;58.53;95895.01;1732286;81;21016;-82
2021/07/31 11:33:27;;;;;;;3.87;3.47;;;;;;;25.20;57.89;95895.26;1729517;81;20975;-82
2021/07/31 11:35:57;;;;;;;6.03;3.85;;;;;;;25.10;57.97;95900.98;1737095;82;20920;-81
2021/07/31 11:38:34;;;;;;;6.62;4.70;;;;;;;25.14;58.96;95905.18;1724877;82;20925;-81